Montrose, Minnesota
Current Conditions -  °F | °C
As of 4:35 AM on Monday 22 Dec 2014 (Local Time) from KCFE Reporting Station
Haze Haze  
Wind Chill: -1°   Ceiling: 500
Heat Index:   Visibility: 4mi
Dew Point:   Wind: 9mph
Humidity: 94%   Direction: 130°SE
Pressure: 29.64"   Gusts: NA
Location:  45.06°N, 93.91°W
Report Text: KCFE 221035Z AUTO 13008KT 4SM BR OVC005 03/02 A2964 RMK AO2 T00300021
Loading
Personal Weather Stations






























Interactive Weather Map New forecast layout! Learn more

10-Day Weather Forecast

Advertisements
Track Severe Weather on mobile